Latest Weather Observations for Strathalbyn

IDS60801

Issued at 8:35 pm CST Friday 25 July 2014 (issued every 30 minutes, with the page automatically refreshed every 10 minutes)

About weather observations | Map of weather stations | Latest weather observations for SA | Other Formats
Station Details ID: 024580 Name: STRATHALBYN RACECOURSE Lat: -35.28 Lon: 138.89 Height: 58.0 m
Data from the previous 72 hours. | See also: Recent months at Strathalbyn
Date/Time
CST
Temp
°C
App
Temp
°C
Dew
Point
Rel
Hum
%
Delta-T
°C
Wind Press
QNH
hPa
Press
MSL
hPa
Rain
since 9 am
mm
Dir
 
Spd
km/h
Gust
km/h
Spd
kts
Gust
kts
25/08:30pm 12.8 10.6 9.4 80 1.7 W 11 17 6 9 1021.8 - 0.2
25/08:00pm 12.6 10.4 9.4 81 1.6 W 11 15 6 8 1021.7 - 0.2
25/07:30pm 13.1 10.5 9.5 79 1.8 W 13 15 7 8 1021.4 - 0.2
25/07:00pm 12.9 10.7 9.5 80 1.7 WNW 11 17 6 9 1021.1 - 0.2
25/06:30pm 13.2 9.3 9.5 78 1.9 WNW 20 32 11 17 1020.5 - 0.2
25/06:00pm 13.2 11.0 9.5 78 1.9 W 11 15 6 8 1020.3 1020.4 0.2
25/05:30pm 13.5 11.4 9.6 77 2.0 WSW 11 15 6 8 1019.9 - 0.2
25/05:00pm 14.0 11.0 9.2 73 2.5 W 15 24 8 13 1019.6 - 0.2
25/04:30pm 14.5 10.7 8.9 69 2.9 W 19 28 10 15 1019.1 - 0.2
25/04:00pm 15.0 11.2 9.1 68 3.0 W 19 26 10 14 1018.7 - 0.2
25/03:30pm 15.0 12.2 10.0 72 2.6 W 15 24 8 13 1018.5 - 0.2
25/03:00pm 15.9 13.0 9.6 66 3.3 WNW 15 22 8 12 1018.1 1018.2 0.2
25/02:30pm 16.1 13.0 10.4 69 3.0 W 17 20 9 11 1017.7 - 0.2
25/02:00pm 15.2 12.7 9.6 69 2.9 W 13 19 7 10 1017.6 - 0.2
25/01:30pm 15.3 11.4 9.4 68 3.0 WNW 20 28 11 15 1017.6 - 0.2
25/01:00pm 15.6 12.3 9.5 67 3.2 WNW 17 32 9 17 1017.7 - 0.2
25/12:30pm 14.7 11.5 9.9 73 2.5 W 17 26 9 14 1017.9 - 0.2
25/12:00pm 14.9 12.3 9.5 70 2.8 W 13 20 7 11 1018.1 1018.2 0.2
25/11:30am 15.2 11.5 10.0 71 2.7 W 20 30 11 16 1018.2 - 0.2
25/11:00am 14.9 11.3 9.7 71 2.7 W 19 26 10 14 1018.1 - 0.2
25/10:30am 14.9 12.6 10.5 75 2.3 W 13 20 7 11 1017.9 - 0.0
25/10:00am 13.7 10.9 10.1 79 1.9 W 15 22 8 12 1017.9 - 0.0
25/09:30am 13.2 10.0 10.0 81 1.7 W 17 24 9 13 1017.5 - 0.0
25/09:00am 12.9 9.0 9.5 80 1.7 WNW 20 32 11 17 1016.9 1017.0 1.4
25/08:30am 12.5 9.9 9.3 81 1.6 W 13 20 7 11 1016.8 - 1.4
25/08:00am 12.0 9.3 9.0 82 1.5 W 13 19 7 10 1016.2 - 1.4
25/07:30am 11.5 8.5 9.1 85 1.2 WNW 15 20 8 11 1015.7 - 1.4
25/07:00am 11.9 8.4 8.9 82 1.5 WNW 17 22 9 12 1015.3 - 1.4
25/06:30am 12.0 9.3 9.0 82 1.5 W 13 24 7 13 1015.0 - 1.4
25/06:00am 11.4 9.4 8.6 83 1.4 W 9 15 5 8 1014.5 1014.6 1.4
25/05:30am 11.6 9.2 8.8 83 1.4 W 11 17 6 9 1014.1 - 1.4
25/05:00am 12.2 8.9 9.6 84 1.3 WNW 17 26 9 14 1013.7 - 1.4
25/04:30am 12.4 9.1 9.4 82 1.5 W 17 24 9 13 1013.5 - 1.4
25/04:00am 12.3 8.6 9.3 82 1.5 W 19 26 10 14 1013.2 - 1.4
25/03:30am 12.2 8.4 9.0 81 1.6 W 19 28 10 15 1012.9 - 1.4
25/03:00am 12.4 8.5 9.4 82 1.5 WNW 20 28 11 15 1012.7 1012.7 1.4
25/02:30am 12.2 9.3 9.8 85 1.2 WNW 15 22 8 12 1012.6 - 1.4
25/02:00am 12.4 9.8 9.4 82 1.5 WNW 13 20 7 11 1012.4 - 1.2
25/01:30am 12.6 9.3 9.4 81 1.6 W 17 22 9 12 1012.1 - 1.2
25/01:00am 12.4 8.6 9.2 81 1.6 WNW 19 28 10 15 1011.8 - 1.2
25/12:30am 12.4 9.0 9.1 80 1.7 WNW 17 26 9 14 1011.8 - 1.2
25/12:00am 12.2 8.4 8.9 80 1.7 WNW 19 26 10 14 1011.5 1011.5 1.2
 
Date/Time
CST
Temp
°C
App
Temp
°C
Dew
Point
Rel
Hum
%
Delta-T
°C
Wind Press
QNH
hPa
Press
MSL
hPa
Rain
since 9 am
mm
Dir
 
Spd
km/h
Gust
km/h
Spd
kts
Gust
kts
24/11:30pm 12.3 8.9 9.3 82 1.5 WNW 17 28 9 15 1011.4 - 1.2
24/11:00pm 12.2 8.4 9.0 81 1.6 WNW 19 26 10 14 1011.4 - 1.2
24/10:30pm 12.2 8.8 9.0 81 1.6 NW 17 26 9 14 1011.3 - 1.2
24/10:00pm 12.6 8.8 9.2 80 1.7 NW 19 33 10 18 1011.0 - 1.2
24/09:30pm 12.9 9.6 9.5 80 1.7 WNW 17 26 9 14 1010.9 - 1.2
24/09:00pm 12.9 9.6 9.5 80 1.7 WNW 17 24 9 13 1010.8 1010.8 1.2
24/08:30pm 12.5 9.5 9.3 81 1.6 WNW 15 22 8 12 1010.6 - 1.2
24/08:00pm 12.6 9.0 9.8 83 1.4 WNW 19 30 10 16 1010.0 - 1.2
24/07:30pm 12.5 8.9 9.9 84 1.3 WNW 19 26 10 14 1009.7 - 1.2
24/07:00pm 12.8 8.6 9.6 81 1.6 NW 22 33 12 18 1009.3 - 1.2
24/06:30pm 13.1 9.2 9.4 78 1.9 NW 20 33 11 18 1009.0 - 1.0
24/06:00pm 13.0 8.7 9.4 79 1.8 NW 22 33 12 18 1008.8 1008.8 1.0
24/05:30pm 12.9 8.6 9.4 79 1.8 WNW 22 32 12 17 1008.4 - 1.0
24/05:00pm 13.0 8.4 9.6 80 1.7 WNW 24 32 13 17 1008.0 - 1.0
24/04:30pm 13.0 10.0 9.3 78 1.9 WNW 15 20 8 11 1007.8 - 1.0
24/04:00pm 13.4 10.1 10.8 84 1.4 NW 19 24 10 13 1007.3 - 1.0
24/03:30pm 13.7 8.8 10.1 79 1.9 NW 26 35 14 19 1006.9 - 0.8
24/03:00pm 14.0 9.9 10.0 77 2.1 NW 22 33 12 18 1006.6 1006.6 0.6
24/02:30pm 14.3 9.2 9.3 72 2.6 NW 26 43 14 23 1006.2 - 0.6
24/02:00pm 13.0 8.9 10.0 82 1.5 WNW 22 32 12 17 1006.3 - 0.6
24/01:30pm 14.5 9.4 9.3 71 2.7 NW 26 37 14 20 1006.2 - 0.4
24/01:00pm 14.2 10.8 10.4 78 2.0 NW 19 30 10 16 1006.3 - 0.4
24/12:30pm 13.6 9.5 11.3 86 1.2 NW 24 35 13 19 1006.7 - 0.2
24/12:00pm 13.4 9.2 9.8 79 1.9 NW 22 33 12 18 1007.1 1007.1 0.2
24/11:30am 13.9 10.0 10.7 81 1.7 NW 22 37 12 20 1007.1 - 0.2
24/11:00am 13.6 9.3 9.3 75 2.2 NW 22 30 12 16 1006.9 - 0.2
24/10:30am 13.3 8.2 9.2 76 2.1 WNW 26 35 14 19 1006.8 - 0.2
24/10:00am 12.5 9.3 10.0 85 1.3 NNW 17 22 9 12 1006.6 - 0.2
24/09:30am 12.5 9.5 9.1 80 1.7 NNW 15 24 8 13 1006.2 - 0.0
24/09:00am 11.3 9.1 9.4 88 1.0 NNW 11 15 6 8 1005.8 1005.8 10.8
24/08:30am 10.3 7.6 8.9 91 0.7 N 13 17 7 9 1005.6 - 10.8
24/08:00am 9.7 6.8 8.3 91 0.7 N 13 17 7 9 1005.2 - 10.8
24/07:30am 9.2 6.2 7.8 91 0.7 NNE 13 17 7 9 1005.1 - 10.8
24/07:00am 9.2 5.8 7.8 91 0.7 NNE 15 19 8 10 1005.1 - 10.6
24/06:30am 9.3 5.2 7.7 90 0.8 NNE 19 24 10 13 1004.9 - 10.4
24/06:00am 9.2 5.0 7.5 89 0.8 NNE 19 26 10 14 1004.9 1004.9 10.4
24/05:30am 9.2 4.4 7.5 89 0.8 NNE 22 30 12 16 1004.9 - 10.4
24/05:00am 9.4 5.0 7.3 87 1.0 NNE 20 28 11 15 1005.2 - 10.0
24/04:30am 9.5 5.2 7.1 85 1.1 NNE 19 26 10 14 1005.2 - 10.0
24/04:00am 9.6 5.1 7.0 84 1.2 NNE 20 28 11 15 1005.3 - 9.8
24/03:30am 9.6 5.1 7.0 84 1.2 NE 20 28 11 15 1005.6 - 9.6
24/03:00am 9.7 4.8 7.1 84 1.2 NNE 22 30 12 16 1005.9 1005.9 9.6
24/02:30am 9.2 5.7 7.2 87 0.9 NNE 15 20 8 11 1006.4 - 9.6
24/02:00am 9.2 5.7 7.3 88 0.9 NE 15 19 8 10 1006.9 - 9.6
24/01:30am 9.0 6.2 7.1 88 0.9 NNE 11 15 6 8 1007.4 - 9.6
24/01:00am 9.1 5.6 7.2 88 0.9 NNE 15 20 8 11 1007.9 - 9.4
24/12:30am 9.1 5.3 7.4 89 0.8 NNE 17 20 9 11 1008.4 - 9.4
24/12:00am 8.7 4.8 7.0 89 0.8 NNE 17 24 9 13 1009.3 1009.3 9.0
 
Date/Time
CST
Temp
°C
App
Temp
°C
Dew
Point
Rel
Hum
%
Delta-T
°C
Wind Press
QNH
hPa
Press
MSL
hPa
Rain
since 9 am
mm
Dir
 
Spd
km/h
Gust
km/h
Spd
kts
Gust
kts
23/11:30pm 8.5 5.2 6.6 88 0.9 N 13 17 7 9 1009.7 - 9.0
23/11:00pm 8.4 5.1 6.5 88 0.9 NNE 13 19 7 10 1010.3 - 9.0
23/10:30pm 8.9 5.0 7.0 88 0.9 NE 17 24 9 13 1011.0 - 9.0
23/10:00pm 9.1 4.9 7.4 89 0.8 NE 19 26 10 14 1011.4 - 9.0
23/09:30pm 9.2 4.4 7.5 89 0.8 NE 22 30 12 16 1012.2 - 8.6
23/09:00pm 9.3 5.5 7.4 88 0.9 NNE 17 19 9 10 1012.9 1012.9 7.6
23/08:30pm 9.4 5.5 7.3 87 1.0 NNE 17 20 9 11 1012.9 - 6.8
23/08:00pm 9.2 6.1 7.2 87 0.9 NNE 13 19 7 10 1013.1 - 6.0
23/07:30pm 9.1 5.9 6.9 86 1.0 NNE 13 15 7 8 1013.1 - 4.8
23/07:00pm 9.3 6.0 6.6 83 1.3 NE 13 17 7 9 1013.1 - 3.2
23/06:30pm 9.6 7.0 6.0 78 1.7 N 9 13 5 7 1013.2 - 1.8
23/06:00pm 9.7 6.2 5.5 75 1.9 N 13 15 7 8 1012.7 1012.7 1.0
23/05:30pm 9.6 6.5 5.6 76 1.8 N 11 13 6 7 1012.4 - 1.0
23/05:00pm 9.8 6.4 6.0 77 1.8 N 13 17 7 9 1012.6 - 1.0
23/04:30pm 9.9 6.1 5.9 76 1.8 NNE 15 20 8 11 1012.6 - 1.0
23/04:00pm 10.0 6.7 6.5 79 1.6 NNE 13 19 7 10 1013.0 - 1.0
23/03:30pm 10.0 5.9 6.2 77 1.8 NNE 17 26 9 14 1012.9 - 1.0
23/03:00pm 9.8 6.6 6.9 82 1.4 ENE 13 17 7 9 1012.9 1012.9 1.0
23/02:30pm 10.6 7.9 7.5 81 1.5 E 11 15 6 8 1013.5 - 0.8
23/02:00pm 11.4 8.4 7.9 79 1.7 NNE 13 17 7 9 1014.2 - 0.6
23/01:30pm 11.7 8.8 6.6 71 2.4 ENE 11 13 6 7 1014.2 - 0.0
23/01:00pm 12.3 8.1 5.5 63 3.2 NE 17 22 9 12 1014.6 - 0.0
23/12:30pm 11.7 7.9 5.6 66 2.8 ENE 15 19 8 10 1015.2 - 0.0
23/12:00pm 11.4 8.1 4.8 64 3.0 NE 11 15 6 8 1016.1 1016.2 0.0
23/11:30am 10.7 6.7 4.8 67 2.7 NE 15 20 8 11 1016.7 - 0.0
23/11:00am 10.3 4.8 3.8 64 2.9 NE 22 28 12 15 1017.2 - 0.0
23/10:30am 10.7 5.6 4.0 63 3.0 NNE 20 30 11 16 1017.6 - 0.0
23/10:00am 10.3 5.2 3.1 61 3.1 NNE 19 26 10 14 1018.0 - 0.0
23/09:30am 9.7 4.6 3.2 64 2.8 NNE 19 26 10 14 1018.0 - 0.0
23/09:00am 9.0 5.0 3.0 66 2.6 NNE 13 19 7 10 1018.2 1018.3 0.0
23/08:30am 8.3 4.7 2.8 68 2.3 NNE 11 15 6 8 1018.3 - 0.0
23/08:00am 7.9 3.5 2.8 70 2.1 NE 15 19 8 10 1018.3 - 0.0
23/07:30am 7.7 3.7 3.0 72 2.0 NNE 13 15 7 8 1018.4 - 0.0
23/07:00am 7.7 3.7 2.8 71 2.1 NE 13 17 7 9 1018.5 - 0.0
23/06:30am 7.1 2.4 3.2 76 1.6 ENE 17 19 9 10 1018.5 - 0.0
23/06:00am 7.1 3.1 3.0 75 1.7 ENE 13 17 7 9 1018.5 1018.6 0.0
23/05:30am 7.6 3.3 3.1 73 1.9 NE 15 17 8 9 1018.3 - 0.0
23/05:00am 6.8 3.6 2.9 76 1.6 NE 9 13 5 7 1018.4 - 0.0
23/04:30am 6.8 3.7 3.6 80 1.4 ENE 9 11 5 6 1018.6 - 0.0
23/04:00am 6.1 2.1 3.1 81 1.3 ENE 13 15 7 8 1019.0 - 0.0
23/03:30am 6.7 3.5 3.1 78 1.5 ENE 9 11 5 6 1019.2 - 0.0
23/03:00am 6.8 3.2 2.9 76 1.6 E 11 13 6 7 1019.3 1019.4 0.0
23/02:30am 7.2 3.7 3.3 76 1.7 ENE 11 11 6 6 1019.8 - 0.0
23/02:00am 7.2 3.6 3.1 75 1.7 ENE 11 13 6 7 1020.1 - 0.0
23/01:30am 7.7 4.2 3.4 74 1.8 NE 11 13 6 7 1019.8 - 0.0
23/01:00am 8.5 5.1 3.8 72 2.0 NNE 11 13 6 7 1020.0 - 0.0
23/12:30am 7.1 3.9 3.0 75 1.7 NNE 9 13 5 7 1020.5 - 0.0
23/12:00am 6.7 4.0 3.7 81 1.3 N 7 9 4 5 1020.8 1020.8 0.0
 
Date/Time
CST
Temp
°C
App
Temp
°C
Dew
Point
Rel
Hum
%
Delta-T
°C
Wind Press
QNH
hPa
Press
MSL
hPa
Rain
since 9 am
mm
Dir
 
Spd
km/h
Gust
km/h
Spd
kts
Gust
kts
22/11:30pm 5.8 3.3 3.5 85 1.0 N 6 7 3 4 1021.2 - 0.0
22/11:00pm 5.5 2.9 3.0 84 1.0 N 6 7 3 4 1021.2 - 0.0
22/10:30pm 5.8 2.6 3.1 83 1.1 N 9 11 5 6 1021.3 - 0.0
22/10:00pm 6.6 3.5 3.6 81 1.3 N 9 11 5 6 1021.4 - 0.0
22/09:30pm 7.3 3.5 4.1 80 1.4 N 13 13 7 7 1021.8 - 0.0
22/09:00pm 6.8 3.8 4.1 83 1.2 N 9 11 5 6 1021.6 1021.6 0.0

Other Formats:

Comma delimited format used in spreadsheet applications
http://www.bom.gov.au/fwo/IDS60801/IDS60801.94814.axf

JavaScript Object Notation format (JSON) in row-major order
http://www.bom.gov.au/fwo/IDS60801/IDS60801.94814.json